sensor_id;sensor_type;location;lat;lon;timestamp;P1;durP1;ratioP1;P2;durP2;ratioP2
71753;SDS011;59593;51.716;7.016;2022-10-16T00:00:32;11.23;;;7.45;;
71753;SDS011;59593;51.716;7.016;2022-10-16T00:02:59;12.48;;;7.88;;
71753;SDS011;59593;51.716;7.016;2022-10-16T00:05:25;12.35;;;8.05;;
71753;SDS011;59593;51.716;7.016;2022-10-16T00:07:50;10.85;;;7.47;;
71753;SDS011;59593;51.716;7.016;2022-10-16T00:10:16;11.38;;;7.53;;
71753;SDS011;59593;51.716;7.016;2022-10-16T00:12:41;13.43;;;7.32;;
71753;SDS011;59593;51.716;7.016;2022-10-16T00:15:07;12.38;;;8.60;;
71753;SDS011;59593;51.716;7.016;2022-10-16T00:17:34;14.30;;;9.45;;
71753;SDS011;59593;51.716;7.016;2022-10-16T00:20:00;11.43;;;8.70;;
71753;SDS011;59593;51.716;7.016;2022-10-16T00:22:25;13.82;;;9.63;;
71753;SDS011;59593;51.716;7.016;2022-10-16T00:24:51;12.20;;;8.80;;
71753;SDS011;59593;51.716;7.016;2022-10-16T00:27:17;10.43;;;7.63;;
71753;SDS011;59593;51.716;7.016;2022-10-16T00:29:42;12.55;;;7.28;;
71753;SDS011;59593;51.716;7.016;2022-10-16T00:32:08;10.80;;;7.18;;
71753;SDS011;59593;51.716;7.016;2022-10-16T00:34:34;9.95;;;7.30;;
71753;SDS011;59593;51.716;7.016;2022-10-16T00:37:00;9.50;;;7.57;;
71753;SDS011;59593;51.716;7.016;2022-10-16T00:39:25;9.90;;;6.65;;
71753;SDS011;59593;51.716;7.016;2022-10-16T00:41:51;12.48;;;6.95;;
71753;SDS011;59593;51.716;7.016;2022-10-16T00:49:53;11.10;;;6.72;;
71753;SDS011;59593;51.716;7.016;2022-10-16T00:52:23;11.20;;;6.50;;
71753;SDS011;59593;51.716;7.016;2022-10-16T00:54:49;11.38;;;6.40;;
71753;SDS011;59593;51.716;7.016;2022-10-16T00:57:16;10.60;;;5.97;;
71753;SDS011;59593;51.716;7.016;2022-10-16T00:59:42;11.38;;;6.15;;
71753;SDS011;59593;51.716;7.016;2022-10-16T01:02:09;9.88;;;6.18;;
71753;SDS011;59593;51.716;7.016;2022-10-16T01:04:38;9.20;;;6.35;;
71753;SDS011;59593;51.716;7.016;2022-10-16T01:07:14;10.55;;;6.32;;
71753;SDS011;59593;51.716;7.016;2022-10-16T01:10:13;7.72;;;5.85;;
71753;SDS011;59593;51.716;7.016;2022-10-16T01:12:55;9.47;;;6.13;;
71753;SDS011;59593;51.716;7.016;2022-10-16T01:15:40;9.93;;;5.90;;
71753;SDS011;59593;51.716;7.016;2022-10-16T01:18:16;11.00;;;5.88;;
71753;SDS011;59593;51.716;7.016;2022-10-16T01:23:27;8.25;;;5.20;;
71753;SDS011;59593;51.716;7.016;2022-10-16T01:28:34;9.30;;;5.83;;
71753;SDS011;59593;51.716;7.016;2022-10-16T01:31:22;9.77;;;5.80;;
71753;SDS011;59593;51.716;7.016;2022-10-16T01:33:52;9.75;;;5.78;;
71753;SDS011;59593;51.716;7.016;2022-10-16T01:36:47;10.15;;;5.65;;
71753;SDS011;59593;51.716;7.016;2022-10-16T01:39:19;8.82;;;5.35;;
71753;SDS011;59593;51.716;7.016;2022-10-16T01:41:49;8.07;;;5.20;;
71753;SDS011;59593;51.716;7.016;2022-10-16T01:44:20;9.43;;;5.63;;
71753;SDS011;59593;51.716;7.016;2022-10-16T01:46:51;8.25;;;5.40;;
71753;SDS011;59593;51.716;7.016;2022-10-16T01:49:19;8.00;;;5.75;;
71753;SDS011;59593;51.716;7.016;2022-10-16T01:51:48;10.10;;;5.78;;
71753;SDS011;59593;51.716;7.016;2022-10-16T01:54:16;11.00;;;5.80;;
71753;SDS011;59593;51.716;7.016;2022-10-16T01:56:45;8.02;;;5.32;;
71753;SDS011;59593;51.716;7.016;2022-10-16T01:59:13;9.05;;;5.30;;
71753;SDS011;59593;51.716;7.016;2022-10-16T02:01:44;9.05;;;5.28;;
71753;SDS011;59593;51.716;7.016;2022-10-16T02:04:24;7.85;;;5.55;;
71753;SDS011;59593;51.716;7.016;2022-10-16T02:06:55;9.10;;;6.10;;
71753;SDS011;59593;51.716;7.016;2022-10-16T02:09:21;7.72;;;5.57;;
71753;SDS011;59593;51.716;7.016;2022-10-16T02:11:47;10.35;;;5.88;;
71753;SDS011;59593;51.716;7.016;2022-10-16T02:14:14;11.02;;;5.45;;
71753;SDS011;59593;51.716;7.016;2022-10-16T02:16:44;8.98;;;5.30;;
71753;SDS011;59593;51.716;7.016;2022-10-16T02:19:11;8.00;;;5.37;;
71753;SDS011;59593;51.716;7.016;2022-10-16T02:29:21;7.03;;;5.30;;
71753;SDS011;59593;51.716;7.016;2022-10-16T02:31:50;9.02;;;5.25;;
71753;SDS011;59593;51.716;7.016;2022-10-16T02:34:20;7.43;;;5.23;;
71753;SDS011;59593;51.716;7.016;2022-10-16T02:36:48;10.27;;;5.47;;
71753;SDS011;59593;51.716;7.016;2022-10-16T02:39:15;6.97;;;4.93;;
71753;SDS011;59593;51.716;7.016;2022-10-16T02:41:42;11.10;;;4.70;;
71753;SDS011;59593;51.716;7.016;2022-10-16T02:44:07;11.70;;;5.63;;
71753;SDS011;59593;51.716;7.016;2022-10-16T02:46:33;7.22;;;5.00;;
71753;SDS011;59593;51.716;7.016;2022-10-16T02:48:59;10.70;;;5.53;;
71753;SDS011;59593;51.716;7.016;2022-10-16T02:51:24;9.20;;;5.10;;
71753;SDS011;59593;51.716;7.016;2022-10-16T02:53:50;6.18;;;4.65;;
71753;SDS011;59593;51.716;7.016;2022-10-16T02:56:15;6.60;;;4.70;;
71753;SDS011;59593;51.716;7.016;2022-10-16T02:58:41;7.95;;;4.70;;
71753;SDS011;59593;51.716;7.016;2022-10-16T03:01:06;12.20;;;4.93;;
71753;SDS011;59593;51.716;7.016;2022-10-16T03:03:32;5.60;;;4.53;;
71753;SDS011;59593;51.716;7.016;2022-10-16T03:05:58;8.27;;;5.00;;
71753;SDS011;59593;51.716;7.016;2022-10-16T03:08:23;7.75;;;4.80;;
71753;SDS011;59593;51.716;7.016;2022-10-16T03:10:50;7.68;;;4.80;;
71753;SDS011;59593;51.716;7.016;2022-10-16T03:13:16;7.20;;;4.35;;
71753;SDS011;59593;51.716;7.016;2022-10-16T03:15:43;7.07;;;4.82;;
71753;SDS011;59593;51.716;7.016;2022-10-16T03:18:08;5.88;;;4.40;;
71753;SDS011;59593;51.716;7.016;2022-10-16T03:20:34;5.17;;;4.40;;
71753;SDS011;59593;51.716;7.016;2022-10-16T03:23:00;9.65;;;4.85;;
71753;SDS011;59593;51.716;7.016;2022-10-16T03:25:25;6.53;;;3.80;;
71753;SDS011;59593;51.716;7.016;2022-10-16T03:27:51;5.30;;;3.80;;
71753;SDS011;59593;51.716;7.016;2022-10-16T03:30:17;6.43;;;3.95;;
71753;SDS011;59593;51.716;7.016;2022-10-16T03:32:44;6.13;;;3.77;;
71753;SDS011;59593;51.716;7.016;2022-10-16T03:35:10;6.78;;;3.20;;
71753;SDS011;59593;51.716;7.016;2022-10-16T03:37:35;6.28;;;3.25;;
71753;SDS011;59593;51.716;7.016;2022-10-16T03:40:01;6.33;;;3.13;;
71753;SDS011;59593;51.716;7.016;2022-10-16T03:42:28;4.63;;;3.00;;
71753;SDS011;59593;51.716;7.016;2022-10-16T03:44:53;5.88;;;2.83;;
71753;SDS011;59593;51.716;7.016;2022-10-16T03:47:19;6.03;;;3.20;;
71753;SDS011;59593;51.716;7.016;2022-10-16T03:49:47;4.43;;;2.87;;
71753;SDS011;59593;51.716;7.016;2022-10-16T03:52:13;5.10;;;2.60;;
71753;SDS011;59593;51.716;7.016;2022-10-16T03:54:38;5.80;;;2.63;;
71753;SDS011;59593;51.716;7.016;2022-10-16T03:57:05;4.28;;;2.72;;
71753;SDS011;59593;51.716;7.016;2022-10-16T03:59:30;6.17;;;2.70;;
71753;SDS011;59593;51.716;7.016;2022-10-16T04:01:56;5.53;;;2.65;;
71753;SDS011;59593;51.716;7.016;2022-10-16T04:04:22;4.65;;;2.60;;
71753;SDS011;59593;51.716;7.016;2022-10-16T04:06:47;4.57;;;2.83;;
71753;SDS011;59593;51.716;7.016;2022-10-16T04:09:13;7.00;;;2.50;;
71753;SDS011;59593;51.716;7.016;2022-10-16T04:11:38;5.87;;;2.47;;
71753;SDS011;59593;51.716;7.016;2022-10-16T04:14:04;3.63;;;2.40;;
71753;SDS011;59593;51.716;7.016;2022-10-16T04:16:30;2.90;;;2.47;;
71753;SDS011;59593;51.716;7.016;2022-10-16T04:18:55;4.47;;;2.42;;
71753;SDS011;59593;51.716;7.016;2022-10-16T04:21:21;4.27;;;2.30;;
71753;SDS011;59593;51.716;7.016;2022-10-16T04:23:47;4.47;;;2.15;;
71753;SDS011;59593;51.716;7.016;2022-10-16T04:26:13;2.90;;;2.20;;
71753;SDS011;59593;51.716;7.016;2022-10-16T04:28:38;3.60;;;2.50;;
71753;SDS011;59593;51.716;7.016;2022-10-16T04:31:04;4.43;;;2.50;;
71753;SDS011;59593;51.716;7.016;2022-10-16T04:33:30;3.00;;;1.97;;
71753;SDS011;59593;51.716;7.016;2022-10-16T04:35:59;4.73;;;2.40;;
71753;SDS011;59593;51.716;7.016;2022-10-16T04:38:26;5.67;;;2.20;;
71753;SDS011;59593;51.716;7.016;2022-10-16T04:40:52;3.50;;;2.42;;
71753;SDS011;59593;51.716;7.016;2022-10-16T04:43:18;2.90;;;2.10;;
71753;SDS011;59593;51.716;7.016;2022-10-16T04:45:43;5.03;;;2.23;;
71753;SDS011;59593;51.716;7.016;2022-10-16T04:48:09;3.33;;;2.40;;
71753;SDS011;59593;51.716;7.016;2022-10-16T04:50:35;5.17;;;2.10;;
71753;SDS011;59593;51.716;7.016;2022-10-16T04:53:00;2.57;;;2.00;;
71753;SDS011;59593;51.716;7.016;2022-10-16T04:55:26;3.80;;;2.00;;
71753;SDS011;59593;51.716;7.016;2022-10-16T04:57:51;6.32;;;2.40;;
71753;SDS011;59593;51.716;7.016;2022-10-16T05:00:17;4.43;;;2.03;;
71753;SDS011;59593;51.716;7.016;2022-10-16T05:02:43;2.40;;;1.80;;
71753;SDS011;59593;51.716;7.016;2022-10-16T05:05:08;3.30;;;2.17;;
71753;SDS011;59593;51.716;7.016;2022-10-16T05:07:34;4.03;;;2.20;;
71753;SDS011;59593;51.716;7.016;2022-10-16T05:10:00;4.17;;;2.20;;
71753;SDS011;59593;51.716;7.016;2022-10-16T05:12:25;3.67;;;2.20;;
71753;SDS011;59593;51.716;7.016;2022-10-16T05:14:51;3.87;;;1.93;;
71753;SDS011;59593;51.716;7.016;2022-10-16T05:17:17;8.10;;;2.20;;
71753;SDS011;59593;51.716;7.016;2022-10-16T05:19:42;3.83;;;1.93;;
71753;SDS011;59593;51.716;7.016;2022-10-16T05:22:08;3.53;;;1.70;;
71753;SDS011;59593;51.716;7.016;2022-10-16T05:24:34;4.27;;;2.00;;
71753;SDS011;59593;51.716;7.016;2022-10-16T05:26:59;3.03;;;1.80;;
71753;SDS011;59593;51.716;7.016;2022-10-16T05:29:25;6.73;;;2.10;;
71753;SDS011;59593;51.716;7.016;2022-10-16T05:31:51;3.43;;;1.80;;
71753;SDS011;59593;51.716;7.016;2022-10-16T05:34:17;4.03;;;2.17;;
71753;SDS011;59593;51.716;7.016;2022-10-16T05:36:43;5.57;;;3.70;;
71753;SDS011;59593;51.716;7.016;2022-10-16T05:39:10;7.03;;;4.27;;
71753;SDS011;59593;51.716;7.016;2022-10-16T05:41:36;5.37;;;2.30;;
71753;SDS011;59593;51.716;7.016;2022-10-16T05:44:05;3.00;;;2.07;;
71753;SDS011;59593;51.716;7.016;2022-10-16T05:46:31;3.30;;;2.17;;
71753;SDS011;59593;51.716;7.016;2022-10-16T05:48:57;2.00;;;1.80;;
71753;SDS011;59593;51.716;7.016;2022-10-16T05:51:23;6.00;;;2.30;;
71753;SDS011;59593;51.716;7.016;2022-10-16T05:53:49;4.07;;;2.03;;
71753;SDS011;59593;51.716;7.016;2022-10-16T05:56:15;6.57;;;2.10;;
71753;SDS011;59593;51.716;7.016;2022-10-16T05:58:41;5.10;;;2.00;;
71753;SDS011;59593;51.716;7.016;2022-10-16T06:01:09;3.73;;;2.20;;
71753;SDS011;59593;51.716;7.016;2022-10-16T06:03:36;3.60;;;2.33;;
71753;SDS011;59593;51.716;7.016;2022-10-16T06:08:35;6.70;;;2.17;;
71753;SDS011;59593;51.716;7.016;2022-10-16T06:11:02;3.30;;;2.20;;
71753;SDS011;59593;51.716;7.016;2022-10-16T06:13:29;3.77;;;2.00;;
71753;SDS011;59593;51.716;7.016;2022-10-16T06:15:56;7.80;;;2.00;;
71753;SDS011;59593;51.716;7.016;2022-10-16T06:18:23;4.22;;;2.20;;
71753;SDS011;59593;51.716;7.016;2022-10-16T06:20:49;4.18;;;2.20;;
71753;SDS011;59593;51.716;7.016;2022-10-16T06:23:14;4.40;;;2.50;;
71753;SDS011;59593;51.716;7.016;2022-10-16T06:25:40;3.17;;;2.40;;
71753;SDS011;59593;51.716;7.016;2022-10-16T06:28:05;5.07;;;2.40;;
71753;SDS011;59593;51.716;7.016;2022-10-16T06:30:31;4.87;;;2.43;;
71753;SDS011;59593;51.716;7.016;2022-10-16T06:32:57;6.30;;;2.53;;
71753;SDS011;59593;51.716;7.016;2022-10-16T06:35:22;3.97;;;2.43;;
71753;SDS011;59593;51.716;7.016;2022-10-16T06:37:48;4.90;;;2.40;;
71753;SDS011;59593;51.716;7.016;2022-10-16T06:40:14;3.93;;;2.20;;
71753;SDS011;59593;51.716;7.016;2022-10-16T06:42:40;4.40;;;2.13;;
71753;SDS011;59593;51.716;7.016;2022-10-16T06:45:06;5.50;;;2.50;;
71753;SDS011;59593;51.716;7.016;2022-10-16T06:47:32;4.70;;;2.40;;
71753;SDS011;59593;51.716;7.016;2022-10-16T06:49:58;3.40;;;1.87;;
71753;SDS011;59593;51.716;7.016;2022-10-16T06:52:23;4.67;;;2.23;;
71753;SDS011;59593;51.716;7.016;2022-10-16T06:54:49;7.73;;;2.23;;
71753;SDS011;59593;51.716;7.016;2022-10-16T06:57:15;4.97;;;2.30;;
71753;SDS011;59593;51.716;7.016;2022-10-16T06:59:41;5.17;;;1.90;;
71753;SDS011;59593;51.716;7.016;2022-10-16T07:02:07;4.03;;;2.10;;
71753;SDS011;59593;51.716;7.016;2022-10-16T07:04:35;5.05;;;1.90;;
71753;SDS011;59593;51.716;7.016;2022-10-16T07:07:01;4.87;;;2.40;;
71753;SDS011;59593;51.716;7.016;2022-10-16T07:09:27;8.30;;;2.50;;
71753;SDS011;59593;51.716;7.016;2022-10-16T07:11:52;4.33;;;2.20;;
71753;SDS011;59593;51.716;7.016;2022-10-16T07:14:19;5.50;;;2.50;;
71753;SDS011;59593;51.716;7.016;2022-10-16T07:16:46;3.17;;;2.27;;
71753;SDS011;59593;51.716;7.016;2022-10-16T07:19:12;5.10;;;2.65;;
71753;SDS011;59593;51.716;7.016;2022-10-16T07:21:39;2.30;;;2.00;;
71753;SDS011;59593;51.716;7.016;2022-10-16T07:24:06;4.03;;;2.50;;
71753;SDS011;59593;51.716;7.016;2022-10-16T07:26:36;5.22;;;2.30;;
71753;SDS011;59593;51.716;7.016;2022-10-16T07:29:04;4.65;;;2.60;;
71753;SDS011;59593;51.716;7.016;2022-10-16T07:31:31;7.18;;;2.70;;
71753;SDS011;59593;51.716;7.016;2022-10-16T07:33:57;6.47;;;2.72;;
71753;SDS011;59593;51.716;7.016;2022-10-16T07:36:24;6.65;;;2.83;;
71753;SDS011;59593;51.716;7.016;2022-10-16T07:38:50;5.33;;;3.17;;
71753;SDS011;59593;51.716;7.016;2022-10-16T07:41:17;4.53;;;2.97;;
71753;SDS011;59593;51.716;7.016;2022-10-16T07:43:47;3.53;;;2.60;;
71753;SDS011;59593;51.716;7.016;2022-10-16T07:46:14;5.22;;;2.70;;
71753;SDS011;59593;51.716;7.016;2022-10-16T07:48:40;7.10;;;2.85;;
71753;SDS011;59593;51.716;7.016;2022-10-16T07:51:06;5.28;;;2.33;;
71753;SDS011;59593;51.716;7.016;2022-10-16T07:53:32;6.43;;;2.90;;
71753;SDS011;59593;51.716;7.016;2022-10-16T07:55:59;5.60;;;2.80;;
71753;SDS011;59593;51.716;7.016;2022-10-16T07:58:26;7.72;;;3.30;;
71753;SDS011;59593;51.716;7.016;2022-10-16T08:00:53;5.22;;;3.05;;
71753;SDS011;59593;51.716;7.016;2022-10-16T08:03:19;7.78;;;3.28;;
71753;SDS011;59593;51.716;7.016;2022-10-16T08:05:44;6.30;;;2.90;;
71753;SDS011;59593;51.716;7.016;2022-10-16T08:08:13;8.05;;;3.33;;
71753;SDS011;59593;51.716;7.016;2022-10-16T08:10:40;5.80;;;3.10;;
71753;SDS011;59593;51.716;7.016;2022-10-16T08:13:06;6.93;;;3.10;;
71753;SDS011;59593;51.716;7.016;2022-10-16T08:15:32;7.53;;;3.13;;
71753;SDS011;59593;51.716;7.016;2022-10-16T08:18:00;5.13;;;2.53;;
71753;SDS011;59593;51.716;7.016;2022-10-16T08:20:28;3.25;;;2.30;;
71753;SDS011;59593;51.716;7.016;2022-10-16T08:22:55;5.65;;;2.40;;
71753;SDS011;59593;51.716;7.016;2022-10-16T08:25:21;3.25;;;2.20;;
71753;SDS011;59593;51.716;7.016;2022-10-16T08:27:48;4.20;;;2.20;;
71753;SDS011;59593;51.716;7.016;2022-10-16T08:30:14;4.40;;;2.20;;
71753;SDS011;59593;51.716;7.016;2022-10-16T08:32:40;6.05;;;2.40;;
71753;SDS011;59593;51.716;7.016;2022-10-16T08:35:07;6.80;;;2.25;;
71753;SDS011;59593;51.716;7.016;2022-10-16T08:37:34;6.18;;;2.72;;
71753;SDS011;59593;51.716;7.016;2022-10-16T08:39:59;6.28;;;2.30;;
71753;SDS011;59593;51.716;7.016;2022-10-16T08:48:08;4.43;;;1.70;;
71753;SDS011;59593;51.716;7.016;2022-10-16T08:50:42;5.72;;;1.80;;
71753;SDS011;59593;51.716;7.016;2022-10-16T08:53:17;4.03;;;1.60;;
71753;SDS011;59593;51.716;7.016;2022-10-16T08:55:53;8.25;;;1.90;;
71753;SDS011;59593;51.716;7.016;2022-10-16T08:58:20;3.63;;;1.70;;
71753;SDS011;59593;51.716;7.016;2022-10-16T09:00:48;4.40;;;1.70;;
71753;SDS011;59593;51.716;7.016;2022-10-16T09:11:54;5.75;;;1.88;;
71753;SDS011;59593;51.716;7.016;2022-10-16T09:17:41;4.57;;;1.77;;
71753;SDS011;59593;51.716;7.016;2022-10-16T09:25:41;2.63;;;1.52;;
71753;SDS011;59593;51.716;7.016;2022-10-16T09:28:09;3.67;;;1.50;;
71753;SDS011;59593;51.716;7.016;2022-10-16T09:30:35;9.43;;;1.83;;
71753;SDS011;59593;51.716;7.016;2022-10-16T09:33:02;4.53;;;1.70;;
71753;SDS011;59593;51.716;7.016;2022-10-16T09:38:04;3.47;;;1.70;;
71753;SDS011;59593;51.716;7.016;2022-10-16T09:40:32;3.40;;;1.60;;
71753;SDS011;59593;51.716;7.016;2022-10-16T09:45:34;3.08;;;1.73;;
71753;SDS011;59593;51.716;7.016;2022-10-16T09:48:01;3.85;;;1.50;;
71753;SDS011;59593;51.716;7.016;2022-10-16T09:50:35;5.45;;;1.70;;
71753;SDS011;59593;51.716;7.016;2022-10-16T09:53:04;4.10;;;1.60;;
71753;SDS011;59593;51.716;7.016;2022-10-16T09:55:36;4.03;;;1.40;;
71753;SDS011;59593;51.716;7.016;2022-10-16T09:58:13;5.18;;;2.00;;
71753;SDS011;59593;51.716;7.016;2022-10-16T10:00:39;3.78;;;1.48;;
71753;SDS011;59593;51.716;7.016;2022-10-16T10:03:10;3.92;;;1.60;;
71753;SDS011;59593;51.716;7.016;2022-10-16T10:05:37;3.28;;;1.30;;
71753;SDS011;59593;51.716;7.016;2022-10-16T10:08:04;3.47;;;1.40;;
71753;SDS011;59593;51.716;7.016;2022-10-16T10:10:33;5.25;;;1.80;;
71753;SDS011;59593;51.716;7.016;2022-10-16T10:13:17;3.15;;;1.48;;
71753;SDS011;59593;51.716;7.016;2022-10-16T10:15:45;7.97;;;1.73;;
71753;SDS011;59593;51.716;7.016;2022-10-16T10:18:14;4.47;;;1.92;;
71753;SDS011;59593;51.716;7.016;2022-10-16T10:20:43;1.73;;;1.20;;
71753;SDS011;59593;51.716;7.016;2022-10-16T10:23:23;7.78;;;1.40;;
71753;SDS011;59593;51.716;7.016;2022-10-16T10:26:33;2.67;;;1.17;;
71753;SDS011;59593;51.716;7.016;2022-10-16T10:31:55;3.97;;;1.48;;
71753;SDS011;59593;51.716;7.016;2022-10-16T10:40:11;5.88;;;1.10;;
71753;SDS011;59593;51.716;7.016;2022-10-16T10:51:16;4.40;;;1.40;;
71753;SDS011;59593;51.716;7.016;2022-10-16T11:02:00;5.18;;;1.10;;
71753;SDS011;59593;51.716;7.016;2022-10-16T11:04:49;2.92;;;1.20;;
71753;SDS011;59593;51.716;7.016;2022-10-16T11:07:21;4.25;;;1.50;;
71753;SDS011;59593;51.716;7.016;2022-10-16T11:10:02;3.65;;;1.40;;
71753;SDS011;59593;51.716;7.016;2022-10-16T11:12:42;5.88;;;1.25;;
71753;SDS011;59593;51.716;7.016;2022-10-16T11:20:34;6.45;;;1.48;;
71753;SDS011;59593;51.716;7.016;2022-10-16T11:25:45;4.25;;;1.48;;
71753;SDS011;59593;51.716;7.016;2022-10-16T11:28:20;2.95;;;1.17;;
71753;SDS011;59593;51.716;7.016;2022-10-16T11:31:07;3.85;;;1.40;;
71753;SDS011;59593;51.716;7.016;2022-10-16T11:33:41;4.13;;;1.10;;
71753;SDS011;59593;51.716;7.016;2022-10-16T11:46:43;5.50;;;1.33;;
71753;SDS011;59593;51.716;7.016;2022-10-16T11:49:18;4.65;;;1.10;;
71753;SDS011;59593;51.716;7.016;2022-10-16T11:51:53;4.55;;;1.30;;
71753;SDS011;59593;51.716;7.016;2022-10-16T11:54:28;2.58;;;1.10;;
71753;SDS011;59593;51.716;7.016;2022-10-16T11:57:15;4.63;;;1.35;;
71753;SDS011;59593;51.716;7.016;2022-10-16T11:59:52;4.07;;;1.20;;
71753;SDS011;59593;51.716;7.016;2022-10-16T12:02:28;4.53;;;1.15;;
71753;SDS011;59593;51.716;7.016;2022-10-16T12:05:17;5.63;;;1.35;;
71753;SDS011;59593;51.716;7.016;2022-10-16T12:10:36;3.97;;;1.20;;
71753;SDS011;59593;51.716;7.016;2022-10-16T12:13:26;4.47;;;1.42;;
71753;SDS011;59593;51.716;7.016;2022-10-16T12:18:43;3.03;;;1.30;;
71753;SDS011;59593;51.716;7.016;2022-10-16T12:21:10;5.68;;;1.50;;
71753;SDS011;59593;51.716;7.016;2022-10-16T12:23:50;5.25;;;1.50;;
71753;SDS011;59593;51.716;7.016;2022-10-16T12:26:27;5.90;;;1.15;;
71753;SDS011;59593;51.716;7.016;2022-10-16T12:29:18;3.53;;;1.20;;
71753;SDS011;59593;51.716;7.016;2022-10-16T12:31:59;4.68;;;1.30;;
71753;SDS011;59593;51.716;7.016;2022-10-16T12:34:28;4.03;;;1.10;;
71753;SDS011;59593;51.716;7.016;2022-10-16T12:37:18;3.55;;;1.20;;
71753;SDS011;59593;51.716;7.016;2022-10-16T12:39:48;3.53;;;1.40;;
71753;SDS011;59593;51.716;7.016;2022-10-16T12:42:21;6.78;;;1.40;;
71753;SDS011;59593;51.716;7.016;2022-10-16T12:44:55;5.70;;;1.20;;
71753;SDS011;59593;51.716;7.016;2022-10-16T12:49:56;4.95;;;1.20;;
71753;SDS011;59593;51.716;7.016;2022-10-16T12:52:36;3.38;;;1.30;;
71753;SDS011;59593;51.716;7.016;2022-10-16T12:55:04;3.97;;;1.15;;
71753;SDS011;59593;51.716;7.016;2022-10-16T12:57:41;6.00;;;1.27;;
71753;SDS011;59593;51.716;7.016;2022-10-16T13:00:41;5.05;;;1.50;;
71753;SDS011;59593;51.716;7.016;2022-10-16T13:08:52;3.33;;;1.48;;
71753;SDS011;59593;51.716;7.016;2022-10-16T13:11:49;5.82;;;1.60;;
71753;SDS011;59593;51.716;7.016;2022-10-16T13:20:20;8.25;;;1.33;;
71753;SDS011;59593;51.716;7.016;2022-10-16T13:22:52;2.53;;;1.13;;
71753;SDS011;59593;51.716;7.016;2022-10-16T13:28:21;9.70;;;1.52;;
71753;SDS011;59593;51.716;7.016;2022-10-16T13:30:52;5.97;;;1.50;;
71753;SDS011;59593;51.716;7.016;2022-10-16T13:33:21;2.58;;;1.20;;
71753;SDS011;59593;51.716;7.016;2022-10-16T13:36:00;4.75;;;1.20;;
71753;SDS011;59593;51.716;7.016;2022-10-16T13:38:27;4.07;;;1.00;;
71753;SDS011;59593;51.716;7.016;2022-10-16T13:41:12;1.85;;;0.93;;
71753;SDS011;59593;51.716;7.016;2022-10-16T13:43:41;4.63;;;0.90;;
71753;SDS011;59593;51.716;7.016;2022-10-16T13:48:40;1.52;;;0.90;;
71753;SDS011;59593;51.716;7.016;2022-10-16T13:51:17;1.85;;;0.90;;
71753;SDS011;59593;51.716;7.016;2022-10-16T13:53:43;4.70;;;1.08;;
71753;SDS011;59593;51.716;7.016;2022-10-16T13:56:11;3.85;;;1.15;;
71753;SDS011;59593;51.716;7.016;2022-10-16T13:58:39;2.67;;;1.20;;
71753;SDS011;59593;51.716;7.016;2022-10-16T14:01:12;2.95;;;1.30;;
71753;SDS011;59593;51.716;7.016;2022-10-16T14:03:45;4.93;;;1.00;;
71753;SDS011;59593;51.716;7.016;2022-10-16T14:06:15;4.85;;;1.20;;
71753;SDS011;59593;51.716;7.016;2022-10-16T14:09:01;3.10;;;1.00;;
71753;SDS011;59593;51.716;7.016;2022-10-16T14:11:31;3.33;;;1.02;;
71753;SDS011;59593;51.716;7.016;2022-10-16T14:13:58;2.55;;;0.90;;
71753;SDS011;59593;51.716;7.016;2022-10-16T14:16:25;2.30;;;0.93;;
71753;SDS011;59593;51.716;7.016;2022-10-16T14:18:56;1.92;;;0.90;;
71753;SDS011;59593;51.716;7.016;2022-10-16T14:21:24;4.75;;;0.90;;
71753;SDS011;59593;51.716;7.016;2022-10-16T14:23:51;2.40;;;0.90;;
71753;SDS011;59593;51.716;7.016;2022-10-16T14:26:18;2.22;;;0.90;;
71753;SDS011;59593;51.716;7.016;2022-10-16T14:28:47;2.58;;;1.10;;
71753;SDS011;59593;51.716;7.016;2022-10-16T14:31:23;4.30;;;1.08;;
71753;SDS011;59593;51.716;7.016;2022-10-16T14:33:52;4.57;;;1.20;;
71753;SDS011;59593;51.716;7.016;2022-10-16T14:36:18;2.88;;;1.00;;
71753;SDS011;59593;51.716;7.016;2022-10-16T14:38:49;4.18;;;1.15;;
71753;SDS011;59593;51.716;7.016;2022-10-16T14:41:26;4.45;;;1.00;;
71753;SDS011;59593;51.716;7.016;2022-10-16T14:43:53;5.32;;;1.10;;
71753;SDS011;59593;51.716;7.016;2022-10-16T14:46:21;3.10;;;1.00;;
71753;SDS011;59593;51.716;7.016;2022-10-16T14:48:55;3.17;;;1.30;;
71753;SDS011;59593;51.716;7.016;2022-10-16T14:51:38;3.63;;;1.00;;
71753;SDS011;59593;51.716;7.016;2022-10-16T14:54:07;3.85;;;1.15;;
71753;SDS011;59593;51.716;7.016;2022-10-16T14:56:34;2.28;;;1.10;;
71753;SDS011;59593;51.716;7.016;2022-10-16T14:59:12;2.70;;;0.90;;
71753;SDS011;59593;51.716;7.016;2022-10-16T15:01:42;2.85;;;1.08;;
71753;SDS011;59593;51.716;7.016;2022-10-16T15:04:09;4.57;;;1.30;;
71753;SDS011;59593;51.716;7.016;2022-10-16T15:06:37;3.97;;;1.27;;
71753;SDS011;59593;51.716;7.016;2022-10-16T15:09:03;2.58;;;1.20;;
71753;SDS011;59593;51.716;7.016;2022-10-16T15:11:29;4.18;;;1.33;;
71753;SDS011;59593;51.716;7.016;2022-10-16T15:13:57;4.82;;;1.40;;
71753;SDS011;59593;51.716;7.016;2022-10-16T15:16:23;3.83;;;1.58;;
71753;SDS011;59593;51.716;7.016;2022-10-16T15:18:48;4.22;;;1.35;;
71753;SDS011;59593;51.716;7.016;2022-10-16T15:21:20;3.95;;;1.60;;
71753;SDS011;59593;51.716;7.016;2022-10-16T15:23:52;3.58;;;1.30;;
71753;SDS011;59593;51.716;7.016;2022-10-16T15:26:18;3.92;;;1.40;;
71753;SDS011;59593;51.716;7.016;2022-10-16T15:28:43;4.97;;;1.20;;
71753;SDS011;59593;51.716;7.016;2022-10-16T15:31:09;2.90;;;1.13;;
71753;SDS011;59593;51.716;7.016;2022-10-16T15:33:35;2.97;;;1.20;;
71753;SDS011;59593;51.716;7.016;2022-10-16T15:36:01;7.13;;;1.50;;
71753;SDS011;59593;51.716;7.016;2022-10-16T15:38:28;4.13;;;1.38;;
71753;SDS011;59593;51.716;7.016;2022-10-16T15:40:54;3.72;;;1.50;;
71753;SDS011;59593;51.716;7.016;2022-10-16T15:43:20;4.32;;;1.20;;
71753;SDS011;59593;51.716;7.016;2022-10-16T15:45:59;36.20;;;3.60;;
71753;SDS011;59593;51.716;7.016;2022-10-16T15:48:30;28.38;;;3.17;;
71753;SDS011;59593;51.716;7.016;2022-10-16T15:50:56;28.55;;;3.47;;
71753;SDS011;59593;51.716;7.016;2022-10-16T15:53:22;15.85;;;3.33;;
71753;SDS011;59593;51.716;7.016;2022-10-16T15:55:47;9.23;;;3.80;;
71753;SDS011;59593;51.716;7.016;2022-10-16T15:58:13;8.18;;;2.90;;
71753;SDS011;59593;51.716;7.016;2022-10-16T16:00:39;5.30;;;2.80;;
71753;SDS011;59593;51.716;7.016;2022-10-16T16:03:05;5.32;;;2.38;;
71753;SDS011;59593;51.716;7.016;2022-10-16T16:05:31;4.53;;;1.85;;
71753;SDS011;59593;51.716;7.016;2022-10-16T16:07:58;5.35;;;2.17;;
71753;SDS011;59593;51.716;7.016;2022-10-16T16:10:24;19.50;;;11.05;;
71753;SDS011;59593;51.716;7.016;2022-10-16T16:12:50;23.42;;;16.60;;
71753;SDS011;59593;51.716;7.016;2022-10-16T16:15:17;19.30;;;14.68;;
71753;SDS011;59593;51.716;7.016;2022-10-16T16:17:44;16.42;;;9.57;;
71753;SDS011;59593;51.716;7.016;2022-10-16T16:20:10;18.40;;;11.52;;
71753;SDS011;59593;51.716;7.016;2022-10-16T16:22:36;17.83;;;11.43;;
71753;SDS011;59593;51.716;7.016;2022-10-16T16:25:02;65.50;;;41.75;;
71753;SDS011;59593;51.716;7.016;2022-10-16T16:27:28;51.53;;;33.35;;
71753;SDS011;59593;51.716;7.016;2022-10-16T16:29:54;44.83;;;28.33;;
71753;SDS011;59593;51.716;7.016;2022-10-16T16:32:20;47.53;;;30.75;;
71753;SDS011;59593;51.716;7.016;2022-10-16T16:34:46;35.45;;;22.13;;
71753;SDS011;59593;51.716;7.016;2022-10-16T16:37:12;27.80;;;18.98;;
71753;SDS011;59593;51.716;7.016;2022-10-16T16:39:38;27.92;;;19.60;;
71753;SDS011;59593;51.716;7.016;2022-10-16T16:42:03;24.35;;;17.27;;
71753;SDS011;59593;51.716;7.016;2022-10-16T16:44:31;19.30;;;14.63;;
71753;SDS011;59593;51.716;7.016;2022-10-16T16:46:57;16.48;;;12.50;;
71753;SDS011;59593;51.716;7.016;2022-10-16T16:49:22;12.45;;;10.10;;
71753;SDS011;59593;51.716;7.016;2022-10-16T16:51:48;12.50;;;7.65;;
71753;SDS011;59593;51.716;7.016;2022-10-16T16:54:14;22.83;;;18.20;;